createdAt,value
2024-04-18T00:02:47.627Z,90.78
2024-04-18T00:08:05.885Z,90.85
2024-04-18T00:13:07.625Z,91.08
2024-04-18T00:18:29.216Z,91.21
2024-04-18T00:23:31.074Z,91.02
2024-04-18T00:28:50.571Z,91.88
2024-04-18T00:33:52.329Z,91.55
2024-04-18T00:39:03.024Z,91.78
2024-04-18T00:44:04.737Z,91.55
2024-04-18T00:49:07.129Z,91.53
2024-04-18T00:54:28.339Z,91.24
2024-04-18T00:59:33.610Z,91.50
2024-04-18T01:04:51.377Z,91.60
2024-04-18T01:10:13.001Z,91.68
2024-04-18T01:15:14.790Z,91.04
2024-04-18T01:20:19.279Z,91.21
2024-04-18T01:25:20.893Z,91.66
2024-04-18T01:30:22.562Z,91.97
2024-04-18T01:35:24.246Z,92.02
2024-04-18T01:40:26.032Z,91.71
2024-04-18T01:45:46.375Z,91.33
2024-04-18T01:50:48.076Z,91.35
2024-04-18T01:56:07.167Z,91.18
2024-04-18T02:01:25.460Z,90.71
2024-04-18T02:06:27.265Z,91.16
2024-04-18T02:11:29.232Z,91.26
2024-04-18T02:16:46.071Z,91.99
2024-04-18T02:22:00.153Z,92.96
2024-04-18T02:27:07.837Z,92.91
2024-04-18T02:32:09.483Z,92.74
2024-04-18T02:37:11.334Z,93.16
2024-04-18T02:42:13.102Z,93.50
2024-04-18T02:47:35.256Z,92.41
2024-04-18T02:52:39.887Z,92.44
2024-04-18T02:57:49.609Z,92.82
2024-04-18T03:02:51.410Z,93.14
2024-04-18T03:07:58.469Z,93.78
2024-04-18T03:13:18.401Z,94.03
2024-04-18T03:18:26.339Z,93.66
2024-04-18T03:23:40.420Z,93.60
2024-04-18T03:28:42.079Z,93.54
2024-04-18T03:33:43.932Z,93.99
2024-04-18T03:38:45.574Z,93.95
2024-04-18T03:43:47.348Z,93.72
2024-04-18T03:48:49.016Z,93.40
2024-04-18T03:53:50.734Z,93.14
2024-04-18T03:58:53.662Z,93.32
2024-04-18T04:03:55.659Z,93.74
2024-04-18T04:09:14.018Z,93.79
2024-04-18T04:14:16.262Z,93.60
2024-04-18T04:19:30.080Z,94.35
2024-04-18T04:24:32.088Z,94.59
2024-04-18T04:29:53.739Z,94.13
2024-04-18T04:34:55.525Z,94.52
2024-04-18T04:39:57.305Z,93.81
2024-04-18T04:44:59.121Z,93.85
2024-04-18T04:50:04.955Z,93.31
2024-04-18T04:55:12.582Z,93.70
2024-04-18T05:00:14.980Z,93.47
2024-04-18T05:05:43.788Z,93.09
2024-04-18T05:10:46.047Z,93.07
2024-04-18T05:15:47.947Z,93.10
2024-04-18T05:21:05.011Z,92.46
2024-04-18T05:26:33.647Z,91.69
2024-04-18T05:31:36.989Z,90.79
2024-04-18T05:36:40.769Z,90.15
2024-04-18T05:41:42.550Z,89.69
2024-04-18T05:47:04.568Z,89.03
2024-04-18T05:52:06.412Z,88.78
2024-04-18T05:57:08.574Z,88.00
2024-04-18T06:02:25.556Z,87.82
2024-04-18T06:07:27.367Z,87.23
2024-04-18T06:12:29.138Z,86.58
2024-04-18T06:17:30.980Z,86.21
2024-04-18T06:22:33.015Z,85.42
2024-04-18T06:27:53.153Z,84.39
2024-04-18T06:32:55.003Z,83.42
2024-04-18T06:37:57.107Z,82.47
2024-04-18T06:42:59.123Z,81.38
2024-04-18T06:48:01.075Z,81.05
2024-04-18T06:53:03.066Z,80.26
2024-04-18T06:58:05.306Z,79.49
2024-04-18T07:03:13.284Z,79.51
2024-04-18T07:08:27.257Z,79.57
2024-04-18T07:13:33.845Z,79.14
2024-04-18T07:18:56.662Z,78.93
2024-04-18T07:24:01.634Z,78.26
2024-04-18T07:29:16.190Z,77.20
2024-04-18T07:34:18.119Z,75.63
2024-04-18T07:39:20.767Z,73.88
2024-04-18T07:44:24.880Z,71.46
2024-04-18T07:49:27.044Z,70.29
2024-04-18T07:54:28.929Z,69.21
2024-04-18T07:59:31.046Z,68.42
2024-04-18T08:04:51.857Z,68.11
2024-04-18T08:09:59.979Z,67.75
2024-04-18T08:15:11.350Z,67.86
2024-04-18T08:20:16.400Z,68.35
2024-04-18T08:25:18.138Z,67.17
2024-04-18T08:30:20.578Z,66.29
2024-04-18T08:35:22.532Z,65.22
2024-04-18T08:40:29.485Z,65.05
2024-04-18T08:45:35.473Z,64.50
2024-04-18T08:50:41.930Z,63.44
2024-04-18T08:55:50.218Z,61.94
2024-04-18T09:00:52.687Z,61.23
2024-04-18T09:05:54.595Z,61.63
2024-04-18T09:10:59.674Z,60.84
2024-04-18T09:16:01.617Z,59.81
2024-04-18T09:21:03.475Z,60.03
2024-04-18T09:26:05.180Z,59.53
2024-04-18T09:31:07.511Z,54.67
2024-04-18T09:36:09.924Z,54.65
2024-04-18T09:41:24.610Z,53.36
2024-04-18T09:46:29.615Z,52.94
2024-04-18T09:51:31.530Z,51.11
2024-04-18T09:56:35.316Z,49.25
2024-04-18T10:01:38.531Z,49.82
2024-04-18T10:06:44.609Z,51.25
2024-04-18T10:11:46.738Z,52.35
2024-04-18T10:16:49.895Z,52.82
2024-04-18T10:27:08.812Z,53.31
2024-04-18T10:32:10.552Z,54.45
2024-04-18T10:37:12.523Z,53.52
2024-04-18T10:42:16.066Z,53.76
2024-04-18T10:47:22.439Z,53.88
2024-04-18T10:52:25.357Z,53.20
2024-04-18T10:57:27.306Z,52.68
2024-04-18T11:02:30.119Z,54.71
2024-04-18T11:07:33.423Z,57.08
2024-04-18T11:12:35.802Z,58.91
2024-04-18T11:17:37.801Z,61.85
2024-04-18T11:22:40.502Z,64.01
2024-04-18T11:27:42.314Z,66.09
2024-04-18T11:32:44.347Z,66.92
2024-04-18T11:37:46.561Z,66.90
2024-04-18T11:42:48.224Z,65.69
2024-04-18T11:47:57.109Z,66.04
2024-04-18T11:52:59.045Z,66.56
2024-04-18T11:58:06.877Z,66.69
2024-04-18T12:03:11.575Z,65.50
2024-04-18T12:08:27.548Z,65.03
2024-04-18T12:13:29.360Z,62.43
2024-04-18T12:18:31.390Z,62.47
2024-04-18T12:23:43.904Z,60.66
2024-04-18T12:28:46.741Z,58.91
2024-04-18T12:33:48.575Z,57.82
2024-04-18T12:38:50.612Z,58.73
2024-04-18T12:43:52.368Z,59.62
2024-04-18T12:49:12.919Z,56.76
2024-04-18T12:54:14.895Z,57.85
2024-04-18T12:59:22.948Z,58.73
2024-04-18T13:04:25.016Z,58.84
2024-04-18T13:09:27.041Z,59.17
2024-04-18T13:14:34.304Z,58.73
2024-04-18T13:19:36.072Z,57.80
2024-04-18T13:24:47.307Z,58.37
2024-04-18T13:30:02.529Z,56.60
2024-04-18T13:35:08.565Z,55.75
2024-04-18T13:40:11.089Z,54.73
2024-04-18T13:45:33.970Z,54.81
2024-04-18T13:50:36.084Z,55.58
2024-04-18T13:55:37.880Z,55.95
2024-04-18T14:00:39.770Z,56.06
2024-04-18T14:06:00.687Z,55.13
2024-04-18T14:11:11.420Z,55.07
2024-04-18T14:16:52.108Z,55.78
2024-04-18T14:22:07.444Z,55.11
2024-04-18T14:27:09.564Z,56.16
2024-04-18T14:32:31.245Z,56.05
2024-04-18T14:37:39.178Z,55.65
2024-04-18T14:42:41.499Z,55.87
2024-04-18T14:47:43.500Z,56.86
2024-04-18T14:52:45.293Z,57.75
2024-04-18T14:58:05.502Z,58.68
2024-04-18T15:03:23.132Z,59.69
2024-04-18T15:08:25.470Z,58.69
2024-04-18T15:13:27.586Z,56.98
2024-04-18T15:18:29.559Z,54.17
2024-04-18T15:23:51.232Z,52.92
2024-04-18T15:29:00.579Z,51.82
2024-04-18T15:34:22.497Z,51.17
2024-04-18T15:39:30.129Z,52.76
2024-04-18T15:44:38.765Z,54.22
2024-04-18T15:50:00.346Z,55.40
2024-04-18T15:55:12.393Z,55.47
2024-04-18T16:00:21.304Z,56.38
2024-04-18T16:05:24.363Z,57.44
2024-04-18T16:10:41.638Z,57.25
2024-04-18T16:16:03.627Z,58.20
2024-04-18T16:21:12.025Z,58.08
2024-04-18T16:26:14.182Z,58.05
2024-04-18T16:31:16.109Z,58.44
2024-04-18T16:36:27.889Z,58.68
2024-04-18T16:41:42.978Z,59.15
2024-04-18T16:46:44.839Z,59.62
2024-04-18T16:51:49.562Z,60.07
2024-04-18T16:56:58.542Z,60.61
2024-04-18T17:02:19.561Z,59.38
2024-04-18T17:07:21.236Z,59.47
2024-04-18T17:12:55.373Z,60.90
2024-04-18T17:18:23.398Z,62.83
2024-04-18T17:23:31.725Z,63.91
2024-04-18T17:28:33.343Z,65.36
2024-04-18T17:33:38.096Z,66.42
2024-04-18T17:38:40.917Z,67.10
2024-04-18T17:44:02.908Z,67.24
2024-04-18T17:49:25.216Z,67.57
2024-04-18T17:54:27.148Z,68.48
2024-04-18T17:59:29.194Z,69.58
2024-04-18T18:04:30.925Z,70.39
2024-04-18T18:09:32.727Z,71.04
2024-04-18T18:14:34.539Z,71.71
2024-04-18T18:19:36.512Z,72.13
2024-04-18T18:24:40.386Z,73.15
2024-04-18T18:29:43.607Z,73.86
2024-04-18T18:34:46.795Z,74.27
2024-04-18T18:39:49.397Z,74.86
2024-04-18T18:44:51.276Z,75.43
2024-04-18T18:49:53.075Z,76.18
2024-04-18T18:54:55.879Z,76.47
2024-04-18T18:59:57.852Z,77.07
2024-04-18T19:04:59.678Z,77.09
2024-04-18T19:10:01.436Z,77.69
2024-04-18T19:15:03.642Z,78.12
2024-04-18T19:20:06.582Z,78.53
2024-04-18T19:25:08.516Z,79.04
2024-04-18T19:30:10.681Z,79.19
2024-04-18T19:35:14.809Z,79.76
2024-04-18T19:40:17.152Z,79.93
2024-04-18T19:45:37.924Z,80.05
2024-04-18T19:50:40.513Z,80.42
2024-04-18T19:56:00.471Z,79.81
2024-04-18T20:01:05.378Z,79.78
2024-04-18T20:06:09.477Z,79.52
2024-04-18T20:11:27.177Z,79.46
2024-04-18T20:16:28.910Z,79.70
2024-04-18T20:21:45.828Z,79.75
2024-04-18T20:26:47.594Z,80.20
2024-04-18T20:31:49.318Z,80.25
2024-04-18T20:36:51.368Z,80.22
2024-04-18T20:41:54.263Z,80.35
2024-04-18T20:46:55.980Z,80.58
2024-04-18T20:51:57.834Z,80.72
2024-04-18T20:57:19.552Z,81.05
2024-04-18T21:02:23.412Z,81.85
2024-04-18T21:07:31.045Z,81.91
2024-04-18T21:12:33.327Z,82.68
2024-04-18T21:17:35.143Z,83.04
2024-04-18T21:22:36.917Z,83.29
2024-04-18T21:27:38.807Z,83.34
2024-04-18T21:32:40.651Z,83.50
2024-04-18T21:37:42.455Z,83.19
2024-04-18T21:42:44.283Z,83.14
2024-04-18T21:47:46.166Z,83.13
2024-04-18T21:52:48.194Z,83.24
2024-04-18T21:57:49.934Z,83.44
2024-04-18T22:02:51.960Z,83.09
2024-04-18T22:07:53.649Z,83.12
2024-04-18T22:12:56.182Z,83.13
2024-04-18T22:17:58.016Z,82.99
2024-04-18T22:22:59.910Z,83.13
2024-04-18T22:28:01.898Z,83.42
2024-04-18T22:33:03.843Z,83.45
2024-04-18T22:38:05.671Z,83.53
2024-04-18T22:43:07.355Z,83.76
2024-04-18T22:48:09.790Z,84.26
2024-04-18T22:53:12.086Z,84.04
2024-04-18T22:58:13.912Z,84.25
2024-04-18T23:03:35.668Z,84.45
2024-04-18T23:08:50.246Z,84.76
2024-04-18T23:13:51.896Z,84.79
2024-04-18T23:18:53.668Z,85.13
2024-04-18T23:23:55.705Z,85.56
2024-04-18T23:28:57.460Z,85.74
2024-04-18T23:33:59.446Z,86.09
2024-04-18T23:39:01.463Z,86.14
2024-04-18T23:44:08.046Z,86.51
2024-04-18T23:49:09.905Z,86.97
2024-04-18T23:54:11.950Z,87.27
2024-04-18T23:59:13.809Z,87.45
